KLUF

Luke AFB Airport

Glendale, Arizona, USA
METAR KLUF 172058Z AUTO 15006KT 10SM CLR 16/06 A2988 RMK AO2 SLP116 T01610057 57018 $
Observed Flight Rules
Dec-17 @ 20:58 UTC (33 minutes ago) Visual Flight Rules
Wind Visibility Clouds
150° at 6 knots 10 miles
  • Clear skies
Temperatures Readings
Current 16°C / 61°F
Dewpoint 6°C / 43°F
Humidity 52%
Altimeter 29.88" Hg
Pressure 1011.6 hPa
Elevation 332
METAR KLUF 172058Z AUTO 15006KT 10SM CLR 16/06 A2988 RMK AO2 SLP116 T01610057 57018 $
Observed Flight Rules
Dec-17 @ 20:58 UTC
(33 minutes ago)
VFR
Wind Visibility
150° at 6 knots 10 miles
Clouds
  • Clear skies
Temperature Dewpoint
16°C / 61°F 6°C / 43°F
Humidity Altimeter Pressure
52% 29.88" Hg 1011.6 hPa